sensor_id;sensor_type;location;lat;lon;timestamp;temperature;humidity
14000;DHT22;7075;53.574;10.054;2023-02-26T00:01:29;1.80;99.90
14000;DHT22;7075;53.574;10.054;2023-02-26T00:03:58;1.80;99.90
14000;DHT22;7075;53.574;10.054;2023-02-26T00:06:26;1.80;99.90
14000;DHT22;7075;53.574;10.054;2023-02-26T00:08:52;1.80;99.90
14000;DHT22;7075;53.574;10.054;2023-02-26T00:11:18;1.80;99.90
14000;DHT22;7075;53.574;10.054;2023-02-26T00:13:44;1.80;99.90
14000;DHT22;7075;53.574;10.054;2023-02-26T00:18:42;1.70;99.90
14000;DHT22;7075;53.574;10.054;2023-02-26T00:21:17;1.70;99.90
14000;DHT22;7075;53.574;10.054;2023-02-26T00:23:44;1.60;99.90
14000;DHT22;7075;53.574;10.054;2023-02-26T00:26:10;1.70;99.90
14000;DHT22;7075;53.574;10.054;2023-02-26T00:28:37;1.70;99.90
14000;DHT22;7075;53.574;10.054;2023-02-26T00:31:05;1.70;99.90
14000;DHT22;7075;53.574;10.054;2023-02-26T00:33:31;1.80;99.90
14000;DHT22;7075;53.574;10.054;2023-02-26T00:41:38;1.60;99.90
14000;DHT22;7075;53.574;10.054;2023-02-26T00:44:06;1.70;99.90
14000;DHT22;7075;53.574;10.054;2023-02-26T00:49:17;1.60;99.90
14000;DHT22;7075;53.574;10.054;2023-02-26T00:51:58;1.60;99.90
14000;DHT22;7075;53.574;10.054;2023-02-26T00:54:28;1.60;99.90
14000;DHT22;7075;53.574;10.054;2023-02-26T00:56:55;1.60;99.90
14000;DHT22;7075;53.574;10.054;2023-02-26T00:59:22;1.60;99.90
14000;DHT22;7075;53.574;10.054;2023-02-26T01:01:51;1.60;99.90
14000;DHT22;7075;53.574;10.054;2023-02-26T01:04:19;1.60;99.90
14000;DHT22;7075;53.574;10.054;2023-02-26T01:06:48;1.60;99.90
14000;DHT22;7075;53.574;10.054;2023-02-26T01:09:29;1.60;99.90
14000;DHT22;7075;53.574;10.054;2023-02-26T01:11:59;1.50;99.90
14000;DHT22;7075;53.574;10.054;2023-02-26T01:14:27;1.60;99.90
14000;DHT22;7075;53.574;10.054;2023-02-26T01:17:02;1.50;99.90
14000;DHT22;7075;53.574;10.054;2023-02-26T01:19:49;1.60;99.90
14000;DHT22;7075;53.574;10.054;2023-02-26T01:22:22;1.70;99.90
14000;DHT22;7075;53.574;10.054;2023-02-26T01:24:55;1.70;99.90
14000;DHT22;7075;53.574;10.054;2023-02-26T01:27:23;1.60;99.90
14000;DHT22;7075;53.574;10.054;2023-02-26T01:29:49;1.60;99.90
14000;DHT22;7075;53.574;10.054;2023-02-26T01:32:23;1.60;99.90
14000;DHT22;7075;53.574;10.054;2023-02-26T01:40:40;1.60;99.90
14000;DHT22;7075;53.574;10.054;2023-02-26T01:43:13;1.60;99.90
14000;DHT22;7075;53.574;10.054;2023-02-26T01:45:54;1.60;99.90
14000;DHT22;7075;53.574;10.054;2023-02-26T01:48:37;1.60;99.90
14000;DHT22;7075;53.574;10.054;2023-02-26T01:51:08;1.60;99.90
14000;DHT22;7075;53.574;10.054;2023-02-26T01:53:33;1.60;99.90
14000;DHT22;7075;53.574;10.054;2023-02-26T01:56:02;1.70;99.90
14000;DHT22;7075;53.574;10.054;2023-02-26T01:58:33;1.70;99.90
14000;DHT22;7075;53.574;10.054;2023-02-26T02:01:01;1.60;99.90
14000;DHT22;7075;53.574;10.054;2023-02-26T02:03:29;1.60;99.90
14000;DHT22;7075;53.574;10.054;2023-02-26T02:06:01;1.60;99.90
14000;DHT22;7075;53.574;10.054;2023-02-26T02:08:30;1.60;99.90
14000;DHT22;7075;53.574;10.054;2023-02-26T02:10:58;1.60;99.90
14000;DHT22;7075;53.574;10.054;2023-02-26T02:13:45;1.60;99.90
14000;DHT22;7075;53.574;10.054;2023-02-26T02:16:27;1.60;99.90
14000;DHT22;7075;53.574;10.054;2023-02-26T02:22:29;1.50;99.90
14000;DHT22;7075;53.574;10.054;2023-02-26T02:30:57;1.50;99.90
14000;DHT22;7075;53.574;10.054;2023-02-26T02:33:32;1.40;99.90
14000;DHT22;7075;53.574;10.054;2023-02-26T02:36:06;1.40;99.90
14000;DHT22;7075;53.574;10.054;2023-02-26T02:38:40;1.40;99.90
14000;DHT22;7075;53.574;10.054;2023-02-26T02:41:12;1.40;99.90
14000;DHT22;7075;53.574;10.054;2023-02-26T02:43:41;1.40;99.90
14000;DHT22;7075;53.574;10.054;2023-02-26T02:46:11;1.40;99.90
14000;DHT22;7075;53.574;10.054;2023-02-26T02:51:16;1.30;99.90
14000;DHT22;7075;53.574;10.054;2023-02-26T02:53:51;1.30;99.90
14000;DHT22;7075;53.574;10.054;2023-02-26T02:56:28;1.30;99.90
14000;DHT22;7075;53.574;10.054;2023-02-26T02:59:22;1.20;99.90
14000;DHT22;7075;53.574;10.054;2023-02-26T03:04:35;1.10;99.90
14000;DHT22;7075;53.574;10.054;2023-02-26T03:07:01;1.10;99.90
14000;DHT22;7075;53.574;10.054;2023-02-26T03:09:26;1.10;99.90
14000;DHT22;7075;53.574;10.054;2023-02-26T03:11:52;1.00;99.90
14000;DHT22;7075;53.574;10.054;2023-02-26T03:14:18;1.00;99.90
14000;DHT22;7075;53.574;10.054;2023-02-26T03:24:50;0.90;99.90
14000;DHT22;7075;53.574;10.054;2023-02-26T03:33:11;0.90;99.90
14000;DHT22;7075;53.574;10.054;2023-02-26T03:36:02;1.00;99.90
14000;DHT22;7075;53.574;10.054;2023-02-26T03:38:38;0.90;99.90
14000;DHT22;7075;53.574;10.054;2023-02-26T03:41:10;1.00;99.90
14000;DHT22;7075;53.574;10.054;2023-02-26T03:46:05;0.90;99.90
14000;DHT22;7075;53.574;10.054;2023-02-26T03:48:33;0.90;99.90
14000;DHT22;7075;53.574;10.054;2023-02-26T03:51:07;0.80;99.90
14000;DHT22;7075;53.574;10.054;2023-02-26T03:53:54;0.80;99.90
14000;DHT22;7075;53.574;10.054;2023-02-26T03:56:23;0.80;99.90
14000;DHT22;7075;53.574;10.054;2023-02-26T03:58:50;0.80;99.90
14000;DHT22;7075;53.574;10.054;2023-02-26T04:01:21;0.80;99.90
14000;DHT22;7075;53.574;10.054;2023-02-26T04:03:57;0.80;99.90
14000;DHT22;7075;53.574;10.054;2023-02-26T04:06:24;0.80;99.90
14000;DHT22;7075;53.574;10.054;2023-02-26T04:08:51;0.80;99.90
14000;DHT22;7075;53.574;10.054;2023-02-26T04:11:19;0.80;99.90
14000;DHT22;7075;53.574;10.054;2023-02-26T04:13:46;0.80;99.90
14000;DHT22;7075;53.574;10.054;2023-02-26T04:16:12;0.70;99.90
14000;DHT22;7075;53.574;10.054;2023-02-26T04:18:38;0.70;99.90
14000;DHT22;7075;53.574;10.054;2023-02-26T04:21:05;0.70;99.90
14000;DHT22;7075;53.574;10.054;2023-02-26T04:23:30;0.70;99.90
14000;DHT22;7075;53.574;10.054;2023-02-26T04:25:56;0.80;99.90
14000;DHT22;7075;53.574;10.054;2023-02-26T04:28:22;0.70;99.90
14000;DHT22;7075;53.574;10.054;2023-02-26T04:30:47;0.70;99.90
14000;DHT22;7075;53.574;10.054;2023-02-26T04:33:13;0.70;99.90
14000;DHT22;7075;53.574;10.054;2023-02-26T04:35:40;0.60;99.90
14000;DHT22;7075;53.574;10.054;2023-02-26T04:38:06;0.60;99.90
14000;DHT22;7075;53.574;10.054;2023-02-26T04:40:32;0.60;99.90
14000;DHT22;7075;53.574;10.054;2023-02-26T04:42:57;0.60;99.90
14000;DHT22;7075;53.574;10.054;2023-02-26T04:45:23;0.60;99.90
14000;DHT22;7075;53.574;10.054;2023-02-26T04:47:49;0.50;99.90
14000;DHT22;7075;53.574;10.054;2023-02-26T04:50:14;0.50;99.90
14000;DHT22;7075;53.574;10.054;2023-02-26T04:52:40;0.50;99.90
14000;DHT22;7075;53.574;10.054;2023-02-26T04:55:06;0.50;99.90
14000;DHT22;7075;53.574;10.054;2023-02-26T04:57:32;0.50;99.90
14000;DHT22;7075;53.574;10.054;2023-02-26T04:59:58;0.50;99.90
14000;DHT22;7075;53.574;10.054;2023-02-26T05:02:23;0.40;99.90
14000;DHT22;7075;53.574;10.054;2023-02-26T05:04:49;0.40;99.90
14000;DHT22;7075;53.574;10.054;2023-02-26T05:07:15;0.40;99.90
14000;DHT22;7075;53.574;10.054;2023-02-26T05:09:40;0.40;99.90
14000;DHT22;7075;53.574;10.054;2023-02-26T05:12:06;0.40;99.90
14000;DHT22;7075;53.574;10.054;2023-02-26T05:14:31;0.30;99.90
14000;DHT22;7075;53.574;10.054;2023-02-26T05:16:57;0.40;99.90
14000;DHT22;7075;53.574;10.054;2023-02-26T05:19:22;0.30;99.90
14000;DHT22;7075;53.574;10.054;2023-02-26T05:21:48;0.30;99.90
14000;DHT22;7075;53.574;10.054;2023-02-26T05:24:14;0.30;99.90
14000;DHT22;7075;53.574;10.054;2023-02-26T05:26:40;0.30;99.90
14000;DHT22;7075;53.574;10.054;2023-02-26T05:29:06;0.30;99.90
14000;DHT22;7075;53.574;10.054;2023-02-26T05:31:31;0.30;99.90
14000;DHT22;7075;53.574;10.054;2023-02-26T05:33:57;0.20;99.90
14000;DHT22;7075;53.574;10.054;2023-02-26T05:36:22;0.20;99.90
14000;DHT22;7075;53.574;10.054;2023-02-26T05:38:48;0.20;99.90
14000;DHT22;7075;53.574;10.054;2023-02-26T05:41:13;0.20;99.90
14000;DHT22;7075;53.574;10.054;2023-02-26T05:43:39;0.20;99.90
14000;DHT22;7075;53.574;10.054;2023-02-26T05:46:04;0.20;99.90
14000;DHT22;7075;53.574;10.054;2023-02-26T05:48:30;0.20;99.90
14000;DHT22;7075;53.574;10.054;2023-02-26T05:50:56;0.20;99.90
14000;DHT22;7075;53.574;10.054;2023-02-26T05:53:21;0.20;99.90
14000;DHT22;7075;53.574;10.054;2023-02-26T05:55:47;0.20;99.90
14000;DHT22;7075;53.574;10.054;2023-02-26T05:58:13;0.20;99.90
14000;DHT22;7075;53.574;10.054;2023-02-26T06:00:39;0.20;99.90
14000;DHT22;7075;53.574;10.054;2023-02-26T06:03:05;0.10;99.90
14000;DHT22;7075;53.574;10.054;2023-02-26T06:05:31;0.20;99.90
14000;DHT22;7075;53.574;10.054;2023-02-26T06:07:56;0.10;99.90
14000;DHT22;7075;53.574;10.054;2023-02-26T06:10:22;0.10;99.90
14000;DHT22;7075;53.574;10.054;2023-02-26T06:12:47;0.10;99.90
14000;DHT22;7075;53.574;10.054;2023-02-26T06:15:13;0.10;99.90
14000;DHT22;7075;53.574;10.054;2023-02-26T06:17:39;0.10;99.90
14000;DHT22;7075;53.574;10.054;2023-02-26T06:20:05;0.10;99.90
14000;DHT22;7075;53.574;10.054;2023-02-26T06:22:31;0.10;99.90
14000;DHT22;7075;53.574;10.054;2023-02-26T06:24:57;0.10;99.90
14000;DHT22;7075;53.574;10.054;2023-02-26T06:27:23;0.10;99.90
14000;DHT22;7075;53.574;10.054;2023-02-26T06:29:49;0.10;99.90
14000;DHT22;7075;53.574;10.054;2023-02-26T06:32:14;0.10;99.90
14000;DHT22;7075;53.574;10.054;2023-02-26T06:34:40;0.00;99.90
14000;DHT22;7075;53.574;10.054;2023-02-26T06:37:05;0.10;99.90
14000;DHT22;7075;53.574;10.054;2023-02-26T06:39:31;0.10;99.90
14000;DHT22;7075;53.574;10.054;2023-02-26T06:41:57;0.10;99.90
14000;DHT22;7075;53.574;10.054;2023-02-26T06:44:22;0.00;99.90
14000;DHT22;7075;53.574;10.054;2023-02-26T06:46:48;0.00;99.90
14000;DHT22;7075;53.574;10.054;2023-02-26T06:49:13;0.00;99.90
14000;DHT22;7075;53.574;10.054;2023-02-26T06:51:39;0.00;99.90
14000;DHT22;7075;53.574;10.054;2023-02-26T06:54:05;0.00;99.90
14000;DHT22;7075;53.574;10.054;2023-02-26T06:56:30;0.00;99.90
14000;DHT22;7075;53.574;10.054;2023-02-26T06:58:56;0.10;99.90
14000;DHT22;7075;53.574;10.054;2023-02-26T07:01:21;0.10;99.90
14000;DHT22;7075;53.574;10.054;2023-02-26T07:03:48;0.20;99.90
14000;DHT22;7075;53.574;10.054;2023-02-26T07:06:15;0.20;99.90
14000;DHT22;7075;53.574;10.054;2023-02-26T07:08:40;0.20;99.90
14000;DHT22;7075;53.574;10.054;2023-02-26T07:11:06;0.20;99.90
14000;DHT22;7075;53.574;10.054;2023-02-26T07:13:33;0.30;99.90
14000;DHT22;7075;53.574;10.054;2023-02-26T07:15:58;0.30;99.90
14000;DHT22;7075;53.574;10.054;2023-02-26T07:18:24;0.40;99.90
14000;DHT22;7075;53.574;10.054;2023-02-26T07:20:50;0.40;99.90
14000;DHT22;7075;53.574;10.054;2023-02-26T07:23:16;0.40;99.90
14000;DHT22;7075;53.574;10.054;2023-02-26T07:25:41;0.50;99.90
14000;DHT22;7075;53.574;10.054;2023-02-26T07:28:07;0.50;99.90
14000;DHT22;7075;53.574;10.054;2023-02-26T07:30:33;0.50;99.90
14000;DHT22;7075;53.574;10.054;2023-02-26T07:32:59;0.50;99.90
14000;DHT22;7075;53.574;10.054;2023-02-26T07:35:25;0.50;99.90
14000;DHT22;7075;53.574;10.054;2023-02-26T07:37:50;0.50;99.90
14000;DHT22;7075;53.574;10.054;2023-02-26T07:40:16;0.50;99.90
14000;DHT22;7075;53.574;10.054;2023-02-26T07:42:42;0.60;99.90
14000;DHT22;7075;53.574;10.054;2023-02-26T07:45:08;0.60;99.90
14000;DHT22;7075;53.574;10.054;2023-02-26T07:47:34;0.60;99.90
14000;DHT22;7075;53.574;10.054;2023-02-26T07:49:59;0.60;99.90
14000;DHT22;7075;53.574;10.054;2023-02-26T07:52:25;0.60;99.90
14000;DHT22;7075;53.574;10.054;2023-02-26T07:54:51;0.60;99.90
14000;DHT22;7075;53.574;10.054;2023-02-26T07:57:17;0.70;99.90
14000;DHT22;7075;53.574;10.054;2023-02-26T07:59:43;0.70;99.90
14000;DHT22;7075;53.574;10.054;2023-02-26T08:02:10;0.70;99.90
14000;DHT22;7075;53.574;10.054;2023-02-26T08:04:36;0.70;99.90
14000;DHT22;7075;53.574;10.054;2023-02-26T08:07:01;0.80;99.90
14000;DHT22;7075;53.574;10.054;2023-02-26T08:09:27;0.80;99.90
14000;DHT22;7075;53.574;10.054;2023-02-26T08:11:53;0.90;99.90
14000;DHT22;7075;53.574;10.054;2023-02-26T08:14:18;0.90;99.90
14000;DHT22;7075;53.574;10.054;2023-02-26T08:16:44;0.90;99.90
14000;DHT22;7075;53.574;10.054;2023-02-26T08:19:10;1.00;99.90
14000;DHT22;7075;53.574;10.054;2023-02-26T08:21:35;1.00;99.90
14000;DHT22;7075;53.574;10.054;2023-02-26T08:24:01;1.00;99.90
14000;DHT22;7075;53.574;10.054;2023-02-26T08:26:27;1.10;99.90
14000;DHT22;7075;53.574;10.054;2023-02-26T08:28:53;1.10;99.90
14000;DHT22;7075;53.574;10.054;2023-02-26T08:31:19;1.10;99.90
14000;DHT22;7075;53.574;10.054;2023-02-26T08:33:45;1.10;99.90
14000;DHT22;7075;53.574;10.054;2023-02-26T08:36:10;1.20;99.90
14000;DHT22;7075;53.574;10.054;2023-02-26T08:38:36;1.20;99.90
14000;DHT22;7075;53.574;10.054;2023-02-26T08:41:02;1.30;99.90
14000;DHT22;7075;53.574;10.054;2023-02-26T08:43:28;1.30;99.90
14000;DHT22;7075;53.574;10.054;2023-02-26T08:45:56;1.40;99.90
14000;DHT22;7075;53.574;10.054;2023-02-26T08:48:23;1.40;99.90
14000;DHT22;7075;53.574;10.054;2023-02-26T08:50:49;1.40;99.90
14000;DHT22;7075;53.574;10.054;2023-02-26T08:53:15;1.50;99.90
14000;DHT22;7075;53.574;10.054;2023-02-26T08:55:41;1.60;99.90
14000;DHT22;7075;53.574;10.054;2023-02-26T08:58:09;1.60;99.90
14000;DHT22;7075;53.574;10.054;2023-02-26T09:00:34;1.70;99.90
14000;DHT22;7075;53.574;10.054;2023-02-26T09:03:00;1.80;99.90
14000;DHT22;7075;53.574;10.054;2023-02-26T09:05:26;1.80;99.90
14000;DHT22;7075;53.574;10.054;2023-02-26T09:07:57;1.80;99.90
14000;DHT22;7075;53.574;10.054;2023-02-26T09:10:23;1.80;99.90
14000;DHT22;7075;53.574;10.054;2023-02-26T09:12:52;1.80;99.90
14000;DHT22;7075;53.574;10.054;2023-02-26T09:15:17;1.90;99.90
14000;DHT22;7075;53.574;10.054;2023-02-26T09:17:44;2.00;99.90
14000;DHT22;7075;53.574;10.054;2023-02-26T09:20:11;2.00;99.90
14000;DHT22;7075;53.574;10.054;2023-02-26T09:22:37;2.10;99.90
14000;DHT22;7075;53.574;10.054;2023-02-26T09:25:03;2.10;99.90
14000;DHT22;7075;53.574;10.054;2023-02-26T09:27:29;2.10;99.90
14000;DHT22;7075;53.574;10.054;2023-02-26T09:29:55;2.10;99.90
14000;DHT22;7075;53.574;10.054;2023-02-26T09:32:21;2.30;99.90
14000;DHT22;7075;53.574;10.054;2023-02-26T09:34:47;2.30;99.90
14000;DHT22;7075;53.574;10.054;2023-02-26T09:37:13;2.30;99.90
14000;DHT22;7075;53.574;10.054;2023-02-26T09:39:39;2.40;99.90
14000;DHT22;7075;53.574;10.054;2023-02-26T09:45:16;2.50;99.90
14000;DHT22;7075;53.574;10.054;2023-02-26T09:47:47;2.60;99.90
14000;DHT22;7075;53.574;10.054;2023-02-26T09:55:42;2.90;99.90
14000;DHT22;7075;53.574;10.054;2023-02-26T09:58:32;2.90;99.90
14000;DHT22;7075;53.574;10.054;2023-02-26T10:06:20;2.90;99.90
14000;DHT22;7075;53.574;10.054;2023-02-26T10:11:49;3.10;99.90
14000;DHT22;7075;53.574;10.054;2023-02-26T10:14:26;3.10;99.90
14000;DHT22;7075;53.574;10.054;2023-02-26T10:16:57;3.20;99.90
14000;DHT22;7075;53.574;10.054;2023-02-26T10:19:31;3.20;99.90
14000;DHT22;7075;53.574;10.054;2023-02-26T10:22:15;3.30;99.90
14000;DHT22;7075;53.574;10.054;2023-02-26T10:24:48;3.40;99.90
14000;DHT22;7075;53.574;10.054;2023-02-26T10:27:20;3.60;99.90
14000;DHT22;7075;53.574;10.054;2023-02-26T10:29:59;3.80;99.90
14000;DHT22;7075;53.574;10.054;2023-02-26T10:32:36;4.10;99.90
14000;DHT22;7075;53.574;10.054;2023-02-26T10:35:16;4.60;99.90
14000;DHT22;7075;53.574;10.054;2023-02-26T10:38:10;4.90;99.90
14000;DHT22;7075;53.574;10.054;2023-02-26T10:41:01;5.40;99.90
14000;DHT22;7075;53.574;10.054;2023-02-26T10:43:40;5.70;99.90
14000;DHT22;7075;53.574;10.054;2023-02-26T10:51:48;5.90;99.90
14000;DHT22;7075;53.574;10.054;2023-02-26T10:54:36;5.50;99.90
14000;DHT22;7075;53.574;10.054;2023-02-26T10:57:03;5.10;99.90
14000;DHT22;7075;53.574;10.054;2023-02-26T10:59:28;4.80;99.90
14000;DHT22;7075;53.574;10.054;2023-02-26T11:02:02;4.60;99.90
14000;DHT22;7075;53.574;10.054;2023-02-26T11:04:27;4.60;99.90
14000;DHT22;7075;53.574;10.054;2023-02-26T11:07:01;4.60;99.90
14000;DHT22;7075;53.574;10.054;2023-02-26T11:09:35;4.40;99.90
14000;DHT22;7075;53.574;10.054;2023-02-26T11:12:06;4.50;99.90
14000;DHT22;7075;53.574;10.054;2023-02-26T11:14:41;4.50;99.90
14000;DHT22;7075;53.574;10.054;2023-02-26T11:17:13;4.50;99.90
14000;DHT22;7075;53.574;10.054;2023-02-26T11:19:45;4.60;99.90
14000;DHT22;7075;53.574;10.054;2023-02-26T11:22:14;4.70;99.90
14000;DHT22;7075;53.574;10.054;2023-02-26T11:24:45;5.10;99.90
14000;DHT22;7075;53.574;10.054;2023-02-26T11:27:21;5.20;99.90
14000;DHT22;7075;53.574;10.054;2023-02-26T11:29:55;5.10;99.90
14000;DHT22;7075;53.574;10.054;2023-02-26T11:32:28;5.00;99.90
14000;DHT22;7075;53.574;10.054;2023-02-26T11:34:54;5.00;99.90
14000;DHT22;7075;53.574;10.054;2023-02-26T11:37:23;5.30;99.90
14000;DHT22;7075;53.574;10.054;2023-02-26T11:39:58;5.60;99.90
14000;DHT22;7075;53.574;10.054;2023-02-26T11:42:25;6.20;99.90
14000;DHT22;7075;53.574;10.054;2023-02-26T11:44:54;6.50;99.90
14000;DHT22;7075;53.574;10.054;2023-02-26T11:47:30;6.70;99.90
14000;DHT22;7075;53.574;10.054;2023-02-26T11:50:03;6.80;99.90
14000;DHT22;7075;53.574;10.054;2023-02-26T11:52:35;6.60;99.90
14000;DHT22;7075;53.574;10.054;2023-02-26T11:55:16;6.60;99.90
14000;DHT22;7075;53.574;10.054;2023-02-26T11:57:42;6.50;99.90
14000;DHT22;7075;53.574;10.054;2023-02-26T12:00:18;6.30;99.90
14000;DHT22;7075;53.574;10.054;2023-02-26T12:02:44;6.20;99.90
14000;DHT22;7075;53.574;10.054;2023-02-26T12:05:14;6.20;99.90
14000;DHT22;7075;53.574;10.054;2023-02-26T12:07:40;6.00;99.90
14000;DHT22;7075;53.574;10.054;2023-02-26T12:10:21;6.20;99.90
14000;DHT22;7075;53.574;10.054;2023-02-26T12:13:17;6.30;99.90
14000;DHT22;7075;53.574;10.054;2023-02-26T12:15:55;6.40;99.90
14000;DHT22;7075;53.574;10.054;2023-02-26T12:18:37;6.50;99.90
14000;DHT22;7075;53.574;10.054;2023-02-26T12:26:22;6.20;99.90
14000;DHT22;7075;53.574;10.054;2023-02-26T12:39:57;7.50;99.90
14000;DHT22;7075;53.574;10.054;2023-02-26T12:43:15;7.90;99.90
14000;DHT22;7075;53.574;10.054;2023-02-26T12:49:01;7.60;99.90
14000;DHT22;7075;53.574;10.054;2023-02-26T12:54:45;7.30;99.90
14000;DHT22;7075;53.574;10.054;2023-02-26T12:59:47;7.00;99.90
14000;DHT22;7075;53.574;10.054;2023-02-26T13:02:33;6.80;99.90
14000;DHT22;7075;53.574;10.054;2023-02-26T13:08:11;6.50;99.90
14000;DHT22;7075;53.574;10.054;2023-02-26T13:10:50;6.60;99.90
14000;DHT22;7075;53.574;10.054;2023-02-26T13:13:44;7.20;99.90
14000;DHT22;7075;53.574;10.054;2023-02-26T13:16:32;7.90;99.90
14000;DHT22;7075;53.574;10.054;2023-02-26T13:19:22;8.60;99.90
14000;DHT22;7075;53.574;10.054;2023-02-26T13:21:54;8.90;99.90
14000;DHT22;7075;53.574;10.054;2023-02-26T13:24:34;8.80;99.90
14000;DHT22;7075;53.574;10.054;2023-02-26T13:27:01;8.90;99.90
14000;DHT22;7075;53.574;10.054;2023-02-26T13:29:34;9.00;99.90
14000;DHT22;7075;53.574;10.054;2023-02-26T13:32:10;8.90;99.90
14000;DHT22;7075;53.574;10.054;2023-02-26T13:34:49;8.50;99.90
14000;DHT22;7075;53.574;10.054;2023-02-26T13:42:47;7.70;99.90
14000;DHT22;7075;53.574;10.054;2023-02-26T13:45:30;7.60;99.90
14000;DHT22;7075;53.574;10.054;2023-02-26T13:48:14;7.40;99.90
14000;DHT22;7075;53.574;10.054;2023-02-26T13:51:12;7.10;99.90
14000;DHT22;7075;53.574;10.054;2023-02-26T13:58:52;6.80;99.90
14000;DHT22;7075;53.574;10.054;2023-02-26T14:01:47;6.80;99.90
14000;DHT22;7075;53.574;10.054;2023-02-26T14:07:14;6.90;99.90
14000;DHT22;7075;53.574;10.054;2023-02-26T14:14:44;8.00;99.90
14000;DHT22;7075;53.574;10.054;2023-02-26T14:17:59;8.20;99.90
14000;DHT22;7075;53.574;10.054;2023-02-26T14:20:26;8.00;99.90
14000;DHT22;7075;53.574;10.054;2023-02-26T14:23:10;7.90;99.90
14000;DHT22;7075;53.574;10.054;2023-02-26T14:25:38;7.80;99.90
14000;DHT22;7075;53.574;10.054;2023-02-26T14:31:05;7.50;99.90
14000;DHT22;7075;53.574;10.054;2023-02-26T14:33:44;7.60;99.90
14000;DHT22;7075;53.574;10.054;2023-02-26T14:39:06;7.60;99.90
14000;DHT22;7075;53.574;10.054;2023-02-26T14:41:39;7.60;99.90
14000;DHT22;7075;53.574;10.054;2023-02-26T14:44:16;7.60;99.90
14000;DHT22;7075;53.574;10.054;2023-02-26T14:46:43;7.40;99.90
14000;DHT22;7075;53.574;10.054;2023-02-26T14:49:34;7.50;99.90
14000;DHT22;7075;53.574;10.054;2023-02-26T14:52:32;8.00;99.90
14000;DHT22;7075;53.574;10.054;2023-02-26T14:58:21;8.20;99.90
14000;DHT22;7075;53.574;10.054;2023-02-26T15:04:18;7.90;99.90
14000;DHT22;7075;53.574;10.054;2023-02-26T15:15:06;7.00;99.90
14000;DHT22;7075;53.574;10.054;2023-02-26T15:23:05;7.20;99.90
14000;DHT22;7075;53.574;10.054;2023-02-26T15:25:38;7.40;99.90
14000;DHT22;7075;53.574;10.054;2023-02-26T15:28:11;7.50;99.90
14000;DHT22;7075;53.574;10.054;2023-02-26T15:30:37;7.60;99.90
14000;DHT22;7075;53.574;10.054;2023-02-26T15:33:06;7.60;99.90
14000;DHT22;7075;53.574;10.054;2023-02-26T15:35:35;7.70;99.90
14000;DHT22;7075;53.574;10.054;2023-02-26T15:38:02;7.70;99.90
14000;DHT22;7075;53.574;10.054;2023-02-26T15:40:35;7.60;99.90
14000;DHT22;7075;53.574;10.054;2023-02-26T15:43:02;7.60;99.90
14000;DHT22;7075;53.574;10.054;2023-02-26T15:45:42;7.60;99.90
14000;DHT22;7075;53.574;10.054;2023-02-26T15:48:16;7.60;99.90
14000;DHT22;7075;53.574;10.054;2023-02-26T15:50:51;7.50;99.90
14000;DHT22;7075;53.574;10.054;2023-02-26T15:53:37;7.40;99.90
14000;DHT22;7075;53.574;10.054;2023-02-26T15:59:15;7.20;99.90
14000;DHT22;7075;53.574;10.054;2023-02-26T16:01:46;7.00;99.90
14000;DHT22;7075;53.574;10.054;2023-02-26T16:04:19;6.90;99.90
14000;DHT22;7075;53.574;10.054;2023-02-26T16:06:49;6.80;99.90
14000;DHT22;7075;53.574;10.054;2023-02-26T16:09:29;6.80;99.90
14000;DHT22;7075;53.574;10.054;2023-02-26T16:12:05;6.80;99.90
14000;DHT22;7075;53.574;10.054;2023-02-26T16:14:40;6.80;99.90
14000;DHT22;7075;53.574;10.054;2023-02-26T16:17:11;6.80;99.90
14000;DHT22;7075;53.574;10.054;2023-02-26T16:19:41;6.70;99.90
14000;DHT22;7075;53.574;10.054;2023-02-26T16:22:36;6.60;99.90
14000;DHT22;7075;53.574;10.054;2023-02-26T16:25:19;6.60;99.90
14000;DHT22;7075;53.574;10.054;2023-02-26T16:27:56;6.70;99.90
14000;DHT22;7075;53.574;10.054;2023-02-26T16:30:29;6.60;99.90
14000;DHT22;7075;53.574;10.054;2023-02-26T16:32:56;6.50;99.90
14000;DHT22;7075;53.574;10.054;2023-02-26T16:35:30;6.50;99.90
14000;DHT22;7075;53.574;10.054;2023-02-26T16:38:16;6.50;99.90
14000;DHT22;7075;53.574;10.054;2023-02-26T16:40:46;6.40;99.90
14000;DHT22;7075;53.574;10.054;2023-02-26T16:46:03;6.40;99.90
14000;DHT22;7075;53.574;10.054;2023-02-26T16:48:37;6.30;99.90
14000;DHT22;7075;53.574;10.054;2023-02-26T16:51:12;6.30;99.90
14000;DHT22;7075;53.574;10.054;2023-02-26T16:56:34;6.20;99.90
14000;DHT22;7075;53.574;10.054;2023-02-26T16:59:13;6.30;99.90
14000;DHT22;7075;53.574;10.054;2023-02-26T17:01:57;6.20;99.90
14000;DHT22;7075;53.574;10.054;2023-02-26T17:04:37;6.20;99.90
14000;DHT22;7075;53.574;10.054;2023-02-26T17:07:35;6.20;99.90
14000;DHT22;7075;53.574;10.054;2023-02-26T17:10:16;6.20;99.90
14000;DHT22;7075;53.574;10.054;2023-02-26T17:13:00;6.10;99.90
14000;DHT22;7075;53.574;10.054;2023-02-26T17:15:36;6.00;99.90
14000;DHT22;7075;53.574;10.054;2023-02-26T17:18:08;6.00;99.90
14000;DHT22;7075;53.574;10.054;2023-02-26T17:20:36;5.90;99.90
14000;DHT22;7075;53.574;10.054;2023-02-26T17:23:06;5.90;99.90
14000;DHT22;7075;53.574;10.054;2023-02-26T17:25:53;5.90;99.90
14000;DHT22;7075;53.574;10.054;2023-02-26T17:28:35;5.80;99.90
14000;DHT22;7075;53.574;10.054;2023-02-26T17:31:07;5.80;99.90
14000;DHT22;7075;53.574;10.054;2023-02-26T17:33:41;5.70;99.90
14000;DHT22;7075;53.574;10.054;2023-02-26T17:36:15;5.70;99.90
14000;DHT22;7075;53.574;10.054;2023-02-26T17:38:46;5.70;99.90
14000;DHT22;7075;53.574;10.054;2023-02-26T17:41:17;5.70;99.90
14000;DHT22;7075;53.574;10.054;2023-02-26T17:43:45;5.60;99.90
14000;DHT22;7075;53.574;10.054;2023-02-26T17:46:13;5.60;99.90
14000;DHT22;7075;53.574;10.054;2023-02-26T17:48:42;5.60;99.90
14000;DHT22;7075;53.574;10.054;2023-02-26T17:51:11;5.50;99.90
14000;DHT22;7075;53.574;10.054;2023-02-26T17:53:41;5.50;99.90
14000;DHT22;7075;53.574;10.054;2023-02-26T17:56:32;5.50;99.90
14000;DHT22;7075;53.574;10.054;2023-02-26T17:59:02;5.50;99.90
14000;DHT22;7075;53.574;10.054;2023-02-26T18:01:31;5.40;99.90
14000;DHT22;7075;53.574;10.054;2023-02-26T18:04:00;5.40;99.90
14000;DHT22;7075;53.574;10.054;2023-02-26T18:06:33;5.30;99.90
14000;DHT22;7075;53.574;10.054;2023-02-26T18:09:03;5.30;99.90
14000;DHT22;7075;53.574;10.054;2023-02-26T18:11:32;5.30;99.90
14000;DHT22;7075;53.574;10.054;2023-02-26T18:14:02;5.30;99.90
14000;DHT22;7075;53.574;10.054;2023-02-26T18:16:38;5.20;99.90
14000;DHT22;7075;53.574;10.054;2023-02-26T18:19:07;5.20;99.90
14000;DHT22;7075;53.574;10.054;2023-02-26T18:21:35;5.20;99.90
14000;DHT22;7075;53.574;10.054;2023-02-26T18:24:03;5.10;99.90
14000;DHT22;7075;53.574;10.054;2023-02-26T18:26:31;5.10;99.90
14000;DHT22;7075;53.574;10.054;2023-02-26T18:28:59;5.00;99.90
14000;DHT22;7075;53.574;10.054;2023-02-26T18:31:26;5.00;99.90
14000;DHT22;7075;53.574;10.054;2023-02-26T18:34:01;4.90;99.90
14000;DHT22;7075;53.574;10.054;2023-02-26T18:36:31;4.90;99.90
14000;DHT22;7075;53.574;10.054;2023-02-26T18:39:07;4.90;99.90
14000;DHT22;7075;53.574;10.054;2023-02-26T18:41:35;4.90;99.90